Time;durP1;ratioP1;P1;durP2;ratioP2;P2;SDS_P1;SDS_P2;PMS_P1;PMS_P2;Temp;Humidity;BMP_temperature;BMP_pressure;BME280_temperature;BME280_humidity;BME280_pressure;Samples;Min_cycle;Max_cycle;Signal;HPM_P1;HPM_P2
2022/07/08 00:01:10;;;;;;;1.17;0.77;;;22.80;77.00;;;;;;5004209;28;20037;-74
2022/07/08 00:03:36;;;;;;;1.73;0.85;;;22.90;77.10;;;;;;5004227;28;20125;-74
2022/07/08 00:06:02;;;;;;;0.82;0.82;;;23.00;76.40;;;;;;4989559;28;20041;-73
2022/07/08 00:08:29;;;;;;;0.80;0.77;;;22.90;76.00;;;;;;5003283;28;20030;-73
2022/07/08 00:10:55;;;;;;;0.70;0.70;;;22.70;75.90;;;;;;5002548;28;20046;-74
2022/07/08 00:13:21;;;;;;;1.15;0.93;;;22.70;76.50;;;;;;4990332;28;20056;-74
2022/07/08 00:15:46;;;;;;;0.75;0.73;;;22.70;76.70;;;;;;5002708;28;20033;-74
2022/07/08 00:18:12;;;;;;;2.63;1.10;;;22.60;76.60;;;;;;5006203;28;20045;-73
2022/07/08 00:20:38;;;;;;;2.80;0.85;;;22.40;77.40;;;;;;4988609;28;20041;-74
2022/07/08 00:23:04;;;;;;;1.63;0.75;;;22.50;77.50;;;;;;5004306;28;20034;-73
2022/07/08 00:25:30;;;;;;;1.35;0.95;;;22.40;77.20;;;;;;5002989;28;20384;-74
2022/07/08 00:27:56;;;;;;;1.42;0.60;;;22.50;77.40;;;;;;5003050;28;20041;-74
2022/07/08 00:30:22;;;;;;;1.63;0.85;;;22.50;77.30;;;;;;5002985;28;20034;-74
2022/07/08 00:32:48;;;;;;;0.70;0.70;;;22.50;77.60;;;;;;4985558;28;20037;-73
2022/07/08 00:35:14;;;;;;;4.55;0.95;;;22.50;76.90;;;;;;5001679;28;20026;-74
2022/07/08 00:37:40;;;;;;;1.30;0.90;;;22.50;77.30;;;;;;5002656;28;20034;-73
2022/07/08 00:40:07;;;;;;;1.02;0.80;;;22.50;76.80;;;;;;4987227;28;20061;-73
2022/07/08 00:42:33;;;;;;;2.65;0.95;;;22.50;77.30;;;;;;5002513;28;20068;-74
2022/07/08 00:44:59;;;;;;;2.20;0.70;;;22.50;77.30;;;;;;5005966;28;20483;-74
2022/07/08 00:47:25;;;;;;;2.03;0.88;;;22.50;77.00;;;;;;5001827;28;20036;-74
2022/07/08 00:49:51;;;;;;;1.73;0.70;;;22.50;77.10;;;;;;5000989;28;20464;-74
2022/07/08 00:52:18;;;;;;;0.85;0.82;;;22.50;76.00;;;;;;5002494;28;20492;-74
2022/07/08 00:54:45;;;;;;;1.42;0.65;;;22.50;76.10;;;;;;5002059;28;20652;-74
2022/07/08 00:57:12;;;;;;;2.50;0.63;;;22.50;76.00;;;;;;5002535;28;20034;-74
2022/07/08 00:59:38;;;;;;;1.48;0.70;;;22.70;75.90;;;;;;5002439;28;20117;-74
2022/07/08 01:02:04;;;;;;;0.65;0.50;;;22.60;75.40;;;;;;4985474;28;20030;-74
2022/07/08 01:04:31;;;;;;;1.55;0.60;;;22.70;74.90;;;;;;5004916;28;20026;-74
2022/07/08 01:06:57;;;;;;;2.65;0.80;;;22.60;75.10;;;;;;5002928;28;20129;-73
2022/07/08 01:09:23;;;;;;;1.35;0.52;;;22.70;75.10;;;;;;5002059;28;20039;-74
2022/07/08 01:11:49;;;;;;;1.35;0.80;;;22.70;75.00;;;;;;4999519;28;20488;-74
2022/07/08 01:14:16;;;;;;;0.60;0.60;;;22.70;75.20;;;;;;5006703;28;20096;-73
2022/07/08 01:16:42;;;;;;;1.40;0.63;;;22.50;75.00;;;;;;4990961;28;20038;-74
2022/07/08 01:19:08;;;;;;;2.38;0.68;;;22.50;75.30;;;;;;5007578;28;20037;-74
2022/07/08 01:21:34;;;;;;;0.57;0.45;;;22.40;75.40;;;;;;5006553;28;20044;-74
2022/07/08 01:24:00;;;;;;;0.52;0.45;;;22.50;75.50;;;;;;5007340;28;20033;-74
2022/07/08 01:26:26;;;;;;;1.75;0.73;;;22.40;75.50;;;;;;5006085;28;20038;-73
2022/07/08 01:28:52;;;;;;;1.75;0.57;;;22.50;75.50;;;;;;4992504;28;20038;-74
2022/07/08 01:31:18;;;;;;;1.33;0.70;;;22.50;75.10;;;;;;5006172;28;20030;-74
2022/07/08 01:33:44;;;;;;;2.38;0.70;;;22.60;74.90;;;;;;5008472;28;20029;-74
2022/07/08 01:36:10;;;;;;;0.70;0.70;;;22.40;74.70;;;;;;4989425;28;20536;-74
2022/07/08 01:38:36;;;;;;;1.65;0.70;;;22.30;75.10;;;;;;5005480;28;20507;-74
2022/07/08 01:41:02;;;;;;;4.25;0.60;;;22.30;75.50;;;;;;4976872;28;20042;-73
2022/07/08 01:43:28;;;;;;;1.10;0.55;;;22.30;75.10;;;;;;4992747;28;20560;-73
2022/07/08 01:45:54;;;;;;;1.70;0.50;;;22.40;75.20;;;;;;5005330;28;20045;-74
2022/07/08 01:48:20;;;;;;;0.60;0.57;;;22.40;74.90;;;;;;5004684;28;20119;-75
2022/07/08 01:50:46;;;;;;;1.38;0.60;;;22.40;74.70;;;;;;4986938;28;20056;-75
2022/07/08 01:53:12;;;;;;;1.52;0.52;;;22.30;74.80;;;;;;5003216;28;20177;-75
2022/07/08 01:55:38;;;;;;;0.88;0.60;;;22.40;75.20;;;;;;5005991;28;20518;-74
2022/07/08 01:58:04;;;;;;;1.10;0.68;;;22.30;75.00;;;;;;5008570;28;20038;-74
2022/07/08 02:00:30;;;;;;;0.55;0.50;;;22.40;75.30;;;;;;5007560;28;20030;-74
2022/07/08 02:02:56;;;;;;;4.40;0.77;;;22.40;75.00;;;;;;5007433;28;20050;-73
2022/07/08 02:05:22;;;;;;;0.52;0.52;;;22.30;75.30;;;;;;4988217;28;20168;-75
2022/07/08 02:07:48;;;;;;;1.83;0.68;;;22.30;75.30;;;;;;5008416;28;20048;-74
2022/07/08 02:10:14;;;;;;;2.22;0.60;;;22.30;75.60;;;;;;4991111;28;20038;-75
2022/07/08 02:12:40;;;;;;;0.70;0.55;;;22.40;75.60;;;;;;5005537;28;20443;-75
2022/07/08 02:15:08;;;;;;;1.85;0.65;;;22.30;75.50;;;;;;5004945;28;20042;-75
2022/07/08 02:17:39;;;;;;;0.50;0.40;;;22.40;75.10;;;;;;5004549;28;20076;-75
2022/07/08 02:20:09;;;;;;;1.33;0.60;;;22.30;75.00;;;;;;5004520;28;20548;-74
2022/07/08 02:22:35;;;;;;;0.90;0.70;;;22.30;75.20;;;;;;5006057;28;20041;-75
2022/07/08 02:25:01;;;;;;;1.55;0.60;;;22.40;74.70;;;;;;5006079;28;20061;-75
2022/07/08 02:27:27;;;;;;;3.72;1.02;;;22.30;74.60;;;;;;5005968;28;20163;-75
2022/07/08 02:29:53;;;;;;;0.85;0.70;;;22.30;75.30;;;;;;5006282;28;20509;-73
2022/07/08 02:32:19;;;;;;;0.47;0.47;;;22.20;75.20;;;;;;5005282;28;20045;-75
2022/07/08 02:34:45;;;;;;;3.65;1.88;;;22.30;75.90;;;;;;5006071;28;20570;-73
2022/07/08 02:37:11;;;;;;;3.28;1.20;;;22.30;75.30;;;;;;5006382;28;20082;-74
2022/07/08 02:39:37;;;;;;;2.22;0.90;;;22.30;75.50;;;;;;5007247;28;20503;-74
2022/07/08 02:42:03;;;;;;;4.22;0.95;;;22.30;75.10;;;;;;5007167;28;20064;-74
2022/07/08 02:44:29;;;;;;;4.13;1.38;;;22.30;74.90;;;;;;5007952;28;20065;-74
2022/07/08 02:46:55;;;;;;;3.03;1.52;;;22.20;75.70;;;;;;5003653;28;20120;-75
2022/07/08 02:49:21;;;;;;;2.80;1.17;;;22.20;75.90;;;;;;5006736;28;20138;-75
2022/07/08 02:51:47;;;;;;;1.95;1.23;;;22.20;75.30;;;;;;5008566;28;20049;-74
2022/07/08 02:54:13;;;;;;;3.17;1.23;;;22.10;75.30;;;;;;5010066;28;20117;-75
2022/07/08 02:56:39;;;;;;;1.58;1.30;;;22.10;75.40;;;;;;4989741;28;20050;-75
2022/07/08 02:59:05;;;;;;;1.30;1.20;;;22.10;75.30;;;;;;5005427;28;20053;-74
2022/07/08 03:01:32;;;;;;;1.58;1.33;;;22.00;75.70;;;;;;4990773;28;20041;-75
2022/07/08 03:03:58;;;;;;;2.08;0.73;;;22.10;76.10;;;;;;5007536;28;20045;-74
2022/07/08 03:06:24;;;;;;;1.52;1.13;;;22.10;75.50;;;;;;5005082;28;20037;-74
2022/07/08 03:08:50;;;;;;;1.42;1.08;;;22.10;75.80;;;;;;5008200;28;20041;-74
2022/07/08 03:11:16;;;;;;;2.40;0.98;;;22.10;76.10;;;;;;5007899;28;20041;-75
2022/07/08 03:13:42;;;;;;;1.27;1.02;;;22.10;75.80;;;;;;5006878;28;20117;-74
2022/07/08 03:16:08;;;;;;;1.00;1.00;;;22.10;75.90;;;;;;5007114;28;20484;-74
2022/07/08 03:18:35;;;;;;;1.20;0.90;;;22.10;75.80;;;;;;4992708;28;20038;-74
2022/07/08 03:21:03;;;;;;;1.33;0.90;;;22.10;75.80;;;;;;4993493;28;20034;-75
2022/07/08 03:23:30;;;;;;;1.27;1.05;;;22.10;76.60;;;;;;4993176;28;20444;-74
2022/07/08 03:25:56;;;;;;;2.70;0.70;;;22.10;76.40;;;;;;4992365;28;20036;-75
2022/07/08 03:28:22;;;;;;;1.08;0.98;;;22.20;76.40;;;;;;5009405;28;20030;-74
2022/07/08 03:30:48;;;;;;;1.67;1.00;;;22.20;76.40;;;;;;4992998;28;20132;-74
2022/07/08 03:33:14;;;;;;;4.00;1.23;;;22.20;76.70;;;;;;5009142;28;20049;-74
2022/07/08 03:35:40;;;;;;;2.30;1.05;;;22.20;76.20;;;;;;5007663;28;20030;-75
2022/07/08 03:38:06;;;;;;;1.40;0.93;;;22.30;77.00;;;;;;5007481;28;20072;-77
2022/07/08 03:43:16;;;;;;;0.93;0.90;;;22.40;76.10;;;;;;5008841;28;20041;-77
2022/07/08 03:45:42;;;;;;;2.17;0.88;;;22.30;75.90;;;;;;5008004;28;20049;-76
2022/07/08 03:48:08;;;;;;;2.40;0.90;;;22.30;76.60;;;;;;5006838;28;20156;-77
2022/07/08 03:50:34;;;;;;;0.70;0.60;;;22.30;77.00;;;;;;5008438;28;20092;-75
2022/07/08 03:53:00;;;;;;;1.23;1.00;;;22.30;76.50;;;;;;5007505;28;20393;-75
2022/07/08 03:55:26;;;;;;;1.38;0.75;;;22.30;75.90;;;;;;5007464;28;20516;-75
2022/07/08 03:57:53;;;;;;;1.17;0.80;;;22.40;76.30;;;;;;5008236;28;20038;-76
2022/07/08 04:00:19;;;;;;;0.85;0.85;;;22.40;76.30;;;;;;5009066;28;20034;-75
2022/07/08 04:02:47;;;;;;;2.22;0.85;;;22.40;75.60;;;;;;5008485;28;20058;-76
2022/07/08 04:05:13;;;;;;;5.88;0.80;;;22.50;76.00;;;;;;5008073;28;20042;-75
2022/07/08 04:07:39;;;;;;;0.80;0.77;;;22.40;75.20;;;;;;5008494;28;20120;-76
2022/07/08 04:10:06;;;;;;;1.40;0.75;;;22.40;75.60;;;;;;5007918;28;20038;-75
2022/07/08 04:12:32;;;;;;;1.42;0.60;;;22.40;75.80;;;;;;4976029;28;20042;-75
2022/07/08 04:14:58;;;;;;;2.42;0.85;;;22.40;76.00;;;;;;5008602;28;20464;-74
2022/07/08 04:17:24;;;;;;;1.77;0.90;;;22.40;75.70;;;;;;5005967;28;20042;-73
2022/07/08 04:19:50;;;;;;;0.88;0.80;;;22.50;75.00;;;;;;5008385;28;20071;-75
2022/07/08 04:22:16;;;;;;;1.50;0.73;;;22.60;75.30;;;;;;4993552;28;20044;-74
2022/07/08 04:24:42;;;;;;;1.70;0.82;;;22.70;75.30;;;;;;5009153;28;20132;-74
2022/07/08 04:27:08;;;;;;;1.92;0.90;;;22.70;74.70;;;;;;4992968;28;20034;-74
2022/07/08 04:29:34;;;;;;;2.53;0.82;;;22.70;74.30;;;;;;5008738;28;20045;-74
2022/07/08 04:32:00;;;;;;;0.90;0.65;;;22.70;74.50;;;;;;5007933;28;20500;-74
2022/07/08 04:34:26;;;;;;;1.25;0.80;;;22.80;74.70;;;;;;5007477;28;20038;-74
2022/07/08 04:36:52;;;;;;;2.72;0.90;;;23.00;74.50;;;;;;5006466;28;20034;-75
2022/07/08 04:39:18;;;;;;;3.05;0.70;;;23.00;74.30;;;;;;5007947;28;20033;-75
2022/07/08 04:41:43;;;;;;;1.33;1.02;;;23.10;74.00;;;;;;5005122;28;20125;-73
2022/07/08 04:44:09;;;;;;;1.75;0.80;;;23.10;73.00;;;;;;5006716;28;20394;-74
2022/07/08 04:46:35;;;;;;;1.55;0.60;;;23.10;73.00;;;;;;5006429;28;20448;-77
2022/07/08 04:49:02;;;;;;;2.92;0.80;;;23.20;73.00;;;;;;4988931;28;20052;-79
2022/07/08 04:51:28;;;;;;;1.55;0.80;;;23.20;73.40;;;;;;5002960;28;20042;-78
2022/07/08 04:53:55;;;;;;;7.68;1.30;;;23.30;74.40;;;;;;4988161;28;20042;-77
2022/07/08 04:56:21;;;;;;;2.20;0.80;;;23.40;74.00;;;;;;4990418;28;20492;-77
2022/07/08 04:58:47;;;;;;;1.30;1.20;;;23.50;74.50;;;;;;5007676;28;20025;-76
2022/07/08 05:01:18;;;;;;;2.70;1.33;;;23.60;74.40;;;;;;5008180;28;20493;-77
2022/07/08 05:03:44;;;;;;;5.65;1.20;;;23.70;75.10;;;;;;5005396;28;20094;-78
2022/07/08 05:06:10;;;;;;;1.67;1.10;;;23.90;76.20;;;;;;4989248;28;20140;-79
2022/07/08 05:08:36;;;;;;;2.58;0.85;;;24.00;73.90;;;;;;5008367;28;20128;-77
2022/07/08 05:11:02;;;;;;;2.22;1.08;;;24.20;72.90;;;;;;5003236;28;20404;-76
2022/07/08 05:13:28;;;;;;;3.40;0.93;;;24.20;72.50;;;;;;5005605;28;20030;-77
2022/07/08 05:15:53;;;;;;;1.17;0.80;;;24.20;71.70;;;;;;5002513;28;20039;-76
2022/07/08 05:18:20;;;;;;;0.82;0.75;;;24.20;71.70;;;;;;5001881;28;20053;-76
2022/07/08 05:20:46;;;;;;;3.30;0.80;;;24.40;72.60;;;;;;5003322;28;20037;-76
2022/07/08 05:23:12;;;;;;;2.55;0.73;;;24.70;71.00;;;;;;5003407;28;20039;-76
2022/07/08 05:25:38;;;;;;;0.60;0.60;;;24.90;69.50;;;;;;5001554;28;20037;-76
2022/07/08 05:28:04;;;;;;;0.68;0.63;;;24.80;70.00;;;;;;5003131;28;20045;-75
2022/07/08 05:30:30;;;;;;;2.05;0.60;;;25.00;70.20;;;;;;4990760;28;20456;-76
2022/07/08 05:32:56;;;;;;;1.60;0.50;;;25.10;69.60;;;;;;5004397;28;20041;-77
2022/07/08 05:35:22;;;;;;;2.35;0.60;;;25.10;68.10;;;;;;5003146;28;20121;-76
2022/07/08 05:37:48;;;;;;;0.70;0.70;;;25.00;66.90;;;;;;5002047;28;20030;-77
2022/07/08 05:40:14;;;;;;;1.02;0.50;;;25.00;66.50;;;;;;5005835;28;20362;-76
2022/07/08 05:42:40;;;;;;;1.35;0.60;;;25.00;66.70;;;;;;5004363;28;20045;-75
2022/07/08 05:45:07;;;;;;;1.55;0.60;;;25.30;67.20;;;;;;5003995;28;20034;-78
2022/07/08 05:47:33;;;;;;;3.10;0.77;;;25.40;66.20;;;;;;4992537;28;20053;-76
2022/07/08 05:49:59;;;;;;;1.63;0.60;;;25.40;65.50;;;;;;5003000;28;20035;-76
2022/07/08 05:52:25;;;;;;;0.93;0.50;;;25.00;63.00;;;;;;4989631;28;20030;-76
2022/07/08 05:54:51;;;;;;;0.65;0.55;;;24.50;64.00;;;;;;5003833;28;20039;-76
2022/07/08 05:57:17;;;;;;;1.58;0.40;;;24.40;65.00;;;;;;5002420;28;20072;-77
2022/07/08 05:59:44;;;;;;;2.85;0.73;;;24.30;65.30;;;;;;5008710;28;20129;-77
2022/07/08 06:02:10;;;;;;;1.10;0.80;;;24.20;66.40;;;;;;5007746;28;20037;-77
2022/07/08 06:04:36;;;;;;;3.97;1.50;;;24.20;69.40;;;;;;5004656;28;20030;-76
2022/07/08 06:07:03;;;;;;;4.72;0.85;;;24.20;68.90;;;;;;4989860;28;20038;-75
2022/07/08 06:09:29;;;;;;;0.85;0.80;;;24.30;68.60;;;;;;5006195;28;20057;-77
2022/07/08 06:11:55;;;;;;;0.93;0.70;;;24.20;68.20;;;;;;5006337;28;20130;-77
2022/07/08 06:14:21;;;;;;;1.08;0.82;;;24.30;68.30;;;;;;5007485;28;20121;-77
2022/07/08 06:16:48;;;;;;;2.15;0.80;;;24.50;67.50;;;;;;5008975;28;20033;-76
2022/07/08 06:19:15;;;;;;;0.77;0.40;;;24.50;67.80;;;;;;5007280;28;20049;-77
2022/07/08 06:21:41;;;;;;;3.10;0.70;;;24.60;68.30;;;;;;4990761;28;20026;-74
2022/07/08 06:24:07;;;;;;;1.83;0.80;;;24.70;69.30;;;;;;5007992;28;20064;-73
2022/07/08 06:26:33;;;;;;;3.60;0.65;;;24.60;67.00;;;;;;5006358;28;20046;-74
2022/07/08 06:28:59;;;;;;;1.25;0.85;;;24.60;67.10;;;;;;5007174;28;20042;-74
2022/07/08 06:31:25;;;;;;;1.20;0.43;;;24.60;66.80;;;;;;5009951;28;20041;-75
2022/07/08 06:33:56;;;;;;;0.55;0.52;;;24.50;67.20;;;;;;5003908;28;20030;-75
2022/07/08 06:36:26;;;;;;;2.85;0.60;;;24.50;67.50;;;;;;5007029;28;20033;-76
2022/07/08 06:38:53;;;;;;;2.00;0.88;;;24.40;67.70;;;;;;4991898;28;20034;-75
2022/07/08 06:41:19;;;;;;;3.60;0.80;;;24.40;67.80;;;;;;5007478;28;20444;-74
2022/07/08 06:43:46;;;;;;;1.23;0.52;;;24.30;67.10;;;;;;4990401;28;20034;-74
2022/07/08 06:46:12;;;;;;;2.53;0.55;;;24.40;66.90;;;;;;5007937;28;20045;-73
2022/07/08 06:48:38;;;;;;;0.90;0.80;;;24.40;66.70;;;;;;5006988;28;20045;-74
2022/07/08 06:51:04;;;;;;;2.15;0.80;;;24.40;67.20;;;;;;4975392;28;20038;-74
2022/07/08 06:56:15;;;;;;;1.15;0.80;;;24.50;67.20;;;;;;5004879;28;20702;-74
2022/07/08 06:58:41;;;;;;;1.38;0.65;;;24.40;67.20;;;;;;5005100;28;20504;-74
2022/07/08 07:01:07;;;;;;;2.40;1.17;;;24.20;66.80;;;;;;5007222;28;20030;-73
2022/07/08 07:03:33;;;;;;;1.90;0.90;;;24.30;67.80;;;;;;5007056;28;20052;-74
2022/07/08 07:05:58;;;;;;;4.80;1.00;;;24.30;67.50;;;;;;5008917;28;20057;-75
2022/07/08 07:08:24;;;;;;;1.65;0.60;;;24.20;67.50;;;;;;5006428;28;20038;-75
2022/07/08 07:10:50;;;;;;;1.00;0.75;;;24.30;67.70;;;;;;5006959;28;20041;-75
2022/07/08 07:13:16;;;;;;;2.28;0.90;;;24.30;68.20;;;;;;4991228;28;20436;-74
2022/07/08 07:15:42;;;;;;;1.45;0.75;;;24.20;66.90;;;;;;5008931;28;20026;-74
2022/07/08 07:18:08;;;;;;;1.15;0.80;;;24.20;68.50;;;;;;4988999;28;20129;-74
2022/07/08 07:20:34;;;;;;;2.13;1.00;;;24.20;68.20;;;;;;5006238;28;20038;-73
2022/07/08 07:23:00;;;;;;;1.77;0.70;;;24.20;68.40;;;;;;5007003;28;20037;-74
2022/07/08 07:25:26;;;;;;;1.15;0.60;;;24.30;68.20;;;;;;5003613;28;20026;-74
2022/07/08 07:27:52;;;;;;;3.92;0.60;;;24.20;67.40;;;;;;5007140;28;20041;-74
2022/07/08 07:30:22;;;;;;;3.08;0.70;;;24.20;68.60;;;;;;5006540;28;20465;-74
2022/07/08 07:32:47;;;;;;;1.45;0.63;;;24.30;68.20;;;;;;5000014;28;20104;-74
2022/07/08 07:35:13;;;;;;;2.00;0.80;;;24.40;67.80;;;;;;5003211;28;20445;-74
2022/07/08 07:37:39;;;;;;;0.75;0.63;;;24.60;67.00;;;;;;5006517;28;20045;-74
2022/07/08 07:40:06;;;;;;;0.65;0.52;;;24.80;67.50;;;;;;5004694;28;20120;-74
2022/07/08 07:42:32;;;;;;;2.17;0.63;;;25.00;64.50;;;;;;5004322;28;20515;-75
2022/07/08 07:44:58;;;;;;;1.08;0.50;;;25.00;64.50;;;;;;5005485;28;20041;-73
2022/07/08 07:47:25;;;;;;;1.23;0.60;;;25.00;64.90;;;;;;5007058;28;20096;-74
2022/07/08 07:49:51;;;;;;;0.68;0.50;;;24.80;64.70;;;;;;5007153;28;20597;-74
2022/07/08 07:52:16;;;;;;;1.08;0.70;;;24.80;65.20;;;;;;4991957;28;20128;-73
2022/07/08 07:54:42;;;;;;;3.33;0.82;;;24.80;65.80;;;;;;4992287;28;20052;-73
2022/07/08 07:57:09;;;;;;;2.70;0.75;;;24.90;66.40;;;;;;5008228;28;20034;-74
2022/07/08 07:59:36;;;;;;;1.60;0.60;;;25.00;66.40;;;;;;5007826;28;20046;-74
2022/07/08 08:02:02;;;;;;;1.60;0.82;;;25.00;66.00;;;;;;5006879;28;20094;-74
2022/07/08 08:04:28;;;;;;;4.55;0.70;;;24.90;65.80;;;;;;5009452;28;20487;-74
2022/07/08 08:06:54;;;;;;;0.40;0.40;;;24.90;65.70;;;;;;5009053;28;20038;-74
2022/07/08 08:09:20;;;;;;;2.00;0.57;;;24.90;65.20;;;;;;5008349;28;20055;-74
2022/07/08 08:11:46;;;;;;;1.65;0.80;;;25.00;65.60;;;;;;5008185;28;20061;-75
2022/07/08 08:14:12;;;;;;;1.13;0.65;;;25.00;65.40;;;;;;5013660;28;20061;-74
2022/07/08 08:16:38;;;;;;;0.60;0.40;;;25.10;66.10;;;;;;5013131;28;20083;-74
2022/07/08 08:19:04;;;;;;;4.22;0.88;;;25.10;65.10;;;;;;5011209;28;20231;-73
2022/07/08 08:21:30;;;;;;;1.05;0.65;;;25.20;64.90;;;;;;5011605;28;20031;-74
2022/07/08 08:23:56;;;;;;;1.25;0.90;;;25.30;64.70;;;;;;5014455;28;20121;-76
2022/07/08 08:26:22;;;;;;;4.70;0.70;;;25.40;65.30;;;;;;4994147;28;20423;-75
2022/07/08 08:28:49;;;;;;;2.83;0.60;;;25.30;65.70;;;;;;5016374;28;20104;-75
2022/07/08 08:31:15;;;;;;;3.50;0.80;;;25.40;65.70;;;;;;5013728;28;20404;-76
2022/07/08 08:33:41;;;;;;;3.40;0.80;;;25.40;64.10;;;;;;5009917;28;20092;-76
2022/07/08 08:36:08;;;;;;;0.82;0.60;;;25.30;63.50;;;;;;5013515;28;20037;-76
2022/07/08 08:38:34;;;;;;;2.00;0.70;;;25.20;64.70;;;;;;5013388;28;20049;-75
2022/07/08 08:41:01;;;;;;;2.05;0.82;;;25.30;64.80;;;;;;5010538;28;20034;-73
2022/07/08 08:43:27;;;;;;;2.13;0.70;;;25.40;65.60;;;;;;5015174;28;20038;-74
2022/07/08 08:45:54;;;;;;;0.77;0.60;;;25.40;65.20;;;;;;4998898;28;20350;-74
2022/07/08 08:48:25;;;;;;;7.15;1.00;;;25.40;63.60;;;;;;4996368;28;20046;-74
2022/07/08 08:50:56;;;;;;;2.15;1.10;;;25.30;63.70;;;;;;5010513;28;20578;-76
2022/07/08 08:53:45;;;;;;;1.85;0.90;;;25.40;65.00;;;;;;4983862;28;20034;-77
2022/07/08 08:56:13;;;;;;;3.70;0.73;;;25.40;65.00;;;;;;5006963;28;20069;-76
2022/07/08 08:58:46;;;;;;;1.73;0.90;;;25.50;64.50;;;;;;4990619;28;20036;-76
2022/07/08 09:01:13;;;;;;;2.53;0.93;;;25.40;64.90;;;;;;5006459;28;20037;-77
2022/07/08 09:03:39;;;;;;;1.50;0.98;;;25.50;65.50;;;;;;4984279;28;20130;-77
2022/07/08 09:06:05;;;;;;;2.45;0.88;;;25.40;63.90;;;;;;4990138;28;20078;-76
2022/07/08 09:08:32;;;;;;;2.58;0.70;;;25.40;64.10;;;;;;5002583;28;20793;-77
2022/07/08 09:10:59;;;;;;;1.85;0.68;;;25.50;64.80;;;;;;4986953;28;20099;-76
2022/07/08 09:13:25;;;;;;;2.13;0.98;;;25.50;64.80;;;;;;4975294;28;20084;-75
2022/07/08 09:15:57;;;;;;;3.97;1.23;;;25.50;64.80;;;;;;5004114;28;20034;-77
2022/07/08 09:18:32;;;;;;;1.38;0.73;;;25.60;64.50;;;;;;4991579;28;20065;-75
2022/07/08 09:20:59;;;;;;;4.95;0.93;;;25.60;64.30;;;;;;5007338;28;20395;-77
2022/07/08 09:23:38;;;;;;;1.50;0.90;;;25.50;63.10;;;;;;5006388;28;20467;-77
2022/07/08 09:26:06;;;;;;;4.07;0.90;;;25.50;63.60;;;;;;4991516;28;20037;-77
2022/07/08 09:28:41;;;;;;;2.30;0.68;;;25.50;64.10;;;;;;4988229;28;20544;-78
2022/07/08 09:31:10;;;;;;;3.55;0.82;;;25.50;64.20;;;;;;5003954;28;20147;-76
2022/07/08 09:33:37;;;;;;;3.53;0.98;;;25.50;63.30;;;;;;5007636;28;20133;-76
2022/07/08 09:36:04;;;;;;;1.10;0.70;;;25.50;63.30;;;;;;4993904;28;20030;-74
2022/07/08 09:38:35;;;;;;;0.95;0.90;;;25.50;64.20;;;;;;5004642;28;20037;-75
2022/07/08 09:41:02;;;;;;;2.50;0.80;;;25.40;62.20;;;;;;5010593;28;20046;-76
2022/07/08 09:43:29;;;;;;;2.05;0.80;;;25.30;62.40;;;;;;5003984;28;20034;-77
2022/07/08 09:46:06;;;;;;;1.13;0.88;;;25.30;61.90;;;;;;5010106;28;20065;-77
2022/07/08 09:48:33;;;;;;;2.70;0.70;;;25.20;62.60;;;;;;5006288;28;20141;-76
2022/07/08 09:51:00;;;;;;;3.83;0.85;;;25.20;65.40;;;;;;4987633;28;20033;-76
2022/07/08 09:53:28;;;;;;;3.22;0.90;;;25.20;64.60;;;;;;4992990;28;20117;-75
2022/07/08 09:55:56;;;;;;;1.40;0.90;;;25.30;65.90;;;;;;5008498;28;20038;-75
2022/07/08 09:58:24;;;;;;;1.88;0.70;;;25.30;65.70;;;;;;4991973;28;20404;-75
2022/07/08 10:00:51;;;;;;;2.63;1.02;;;25.40;65.00;;;;;;5008035;28;20037;-77
2022/07/08 10:03:19;;;;;;;2.47;0.90;;;25.50;66.30;;;;;;4977279;28;20103;-76
2022/07/08 10:05:46;;;;;;;2.30;0.90;;;25.60;66.30;;;;;;5004000;28;20042;-76
2022/07/08 10:08:13;;;;;;;5.05;0.90;;;25.60;67.30;;;;;;5006340;28;20241;-77
2022/07/08 10:10:42;;;;;;;2.53;0.88;;;25.70;65.50;;;;;;5008709;28;20030;-74
2022/07/08 10:13:08;;;;;;;1.40;0.82;;;25.70;66.50;;;;;;5005326;28;20095;-73
2022/07/08 10:15:37;;;;;;;1.55;0.90;;;25.70;65.30;;;;;;5006421;28;20031;-73
2022/07/08 10:18:17;;;;;;;2.38;0.85;;;25.60;64.80;;;;;;4988050;28;20088;-73
2022/07/08 10:22:51;;;;;;;16.40;1.83;;;25.60;65.50;;;;;;5048371;28;20415;-71
2022/07/08 10:25:20;;;;;;;4.65;1.23;;;25.70;66.40;;;;;;4969445;28;20030;-75
2022/07/08 10:27:49;;;;;;;3.47;0.90;;;25.70;65.60;;;;;;5009768;28;20044;-72
2022/07/08 10:30:17;;;;;;;1.85;0.98;;;25.80;64.10;;;;;;5014275;28;20043;-73
2022/07/08 10:32:47;;;;;;;1.25;0.93;;;25.70;63.00;;;;;;5012742;28;20045;-72
2022/07/08 10:35:18;;;;;;;3.42;1.17;;;25.60;62.30;;;;;;5013506;28;20034;-73
2022/07/08 10:38:00;;;;;;;1.00;0.88;;;25.60;63.30;;;;;;5044725;28;20725;-72
2022/07/08 10:40:41;;;;;;;4.68;1.08;;;25.60;62.90;;;;;;5012610;28;20049;-72
2022/07/08 10:43:19;;;;;;;4.93;1.13;;;25.60;63.10;;;;;;5012169;28;20433;-72
2022/07/08 10:46:11;;;;;;;2.90;0.98;;;25.50;62.30;;;;;;4998542;28;20038;-72
2022/07/08 10:50:05;;;;;;;6.47;1.10;;;25.30;60.10;;;;;;5094637;27;20115;-72
2022/07/08 10:52:39;;;;;;;5.45;1.20;;;25.30;62.80;;;;;;5045260;28;20033;-72
2022/07/08 10:55:16;;;;;;;10.77;1.45;;;25.30;63.00;;;;;;5057292;28;20575;-72
2022/07/08 10:57:58;;;;;;;5.75;1.40;;;25.40;64.30;;;;;;5046184;28;20044;-72
2022/07/08 11:00:25;;;;;;;4.30;0.95;;;25.30;62.20;;;;;;5041136;28;21441;-72
2022/07/08 11:02:52;;;;;;;7.57;1.30;;;25.20;61.60;;;;;;5041764;28;20033;-73
2022/07/08 11:05:42;;;;;;;4.40;1.17;;;25.20;62.00;;;;;;5040674;28;20043;-72
2022/07/08 11:08:20;;;;;;;10.25;1.30;;;25.30;62.80;;;;;;5039543;28;20400;-72
2022/07/08 11:10:47;;;;;;;3.97;1.30;;;25.10;60.90;;;;;;5043449;28;20033;-72
2022/07/08 11:13:13;;;;;;;5.30;1.20;;;25.10;62.10;;;;;;5040646;28;20029;-73
2022/07/08 11:15:39;;;;;;;3.13;1.35;;;25.10;63.90;;;;;;5041293;28;20075;-73
2022/07/08 11:20:36;;;;;;;3.90;1.00;;;25.20;62.60;;;;;;5064694;27;20122;-73
2022/07/08 11:23:06;;;;;;;3.50;1.10;;;25.20;62.00;;;;;;5023965;28;20350;-74
2022/07/08 11:25:32;;;;;;;1.75;1.17;;;25.20;61.50;;;;;;5035360;28;20145;-73
2022/07/08 11:28:00;;;;;;;3.28;1.25;;;25.20;62.00;;;;;;5023009;28;20450;-72
2022/07/08 11:30:30;;;;;;;4.68;1.50;;;25.20;61.30;;;;;;4991697;28;20647;-71
2022/07/08 11:32:58;;;;;;;1.50;1.23;;;25.30;62.10;;;;;;5022311;28;20042;-74
2022/07/08 11:35:24;;;;;;;3.70;1.33;;;25.30;62.10;;;;;;5025905;28;20239;-74
2022/07/08 11:37:50;;;;;;;3.58;1.23;;;25.20;62.00;;;;;;5018480;28;20116;-75
2022/07/08 11:40:16;;;;;;;2.60;1.35;;;25.20;61.40;;;;;;5022897;28;20056;-75
2022/07/08 11:42:42;;;;;;;2.78;1.25;;;25.00;61.10;;;;;;5022172;28;20037;-75
2022/07/08 11:45:12;;;;;;;2.15;1.38;;;25.00;61.50;;;;;;5019682;28;20086;-75
2022/07/08 11:47:39;;;;;;;2.03;1.15;;;25.00;61.70;;;;;;5021726;28;20403;-76
2022/07/08 11:50:08;;;;;;;1.20;1.10;;;25.00;61.70;;;;;;5021231;28;20045;-74
2022/07/08 11:52:34;;;;;;;1.95;1.00;;;25.00;61.30;;;;;;5021509;28;20121;-74
2022/07/08 11:55:01;;;;;;;2.72;1.27;;;25.00;61.40;;;;;;5021637;28;20485;-77
2022/07/08 11:57:28;;;;;;;1.40;1.10;;;25.00;61.00;;;;;;5018080;28;20033;-76
2022/07/08 11:59:54;;;;;;;1.52;1.20;;;25.00;60.70;;;;;;5021159;28;20038;-76
2022/07/08 12:02:24;;;;;;;1.17;1.10;;;25.00;60.40;;;;;;5022930;28;20521;-77
2022/07/08 12:04:51;;;;;;;1.73;1.38;;;25.00;59.40;;;;;;5021957;28;20030;-74
2022/07/08 12:07:24;;;;;;;2.80;1.20;;;25.00;60.50;;;;;;5022981;28;20045;-74
2022/07/08 12:10:05;;;;;;;2.65;1.23;;;25.10;61.70;;;;;;5021749;28;20029;-74
2022/07/08 12:12:35;;;;;;;2.20;1.20;;;25.10;60.50;;;;;;5022208;28;20045;-75
2022/07/08 12:15:12;;;;;;;2.05;1.42;;;25.10;60.40;;;;;;5023075;28;20038;-75
2022/07/08 12:17:38;;;;;;;2.28;1.38;;;25.10;60.90;;;;;;5019584;28;20492;-75
2022/07/08 12:20:04;;;;;;;3.03;1.17;;;25.10;61.30;;;;;;5019327;28;20046;-76
2022/07/08 12:22:47;;;;;;;3.03;1.08;;;25.20;61.10;;;;;;5021198;28;20033;-77
2022/07/08 12:25:16;;;;;;;1.20;1.10;;;25.20;61.60;;;;;;5031900;28;20144;-76
2022/07/08 12:27:43;;;;;;;1.27;1.17;;;25.20;60.70;;;;;;5033664;28;20039;-78
2022/07/08 12:30:10;;;;;;;3.17;1.42;;;25.20;60.80;;;;;;5032373;28;20062;-76
2022/07/08 12:32:43;;;;;;;2.65;1.30;;;25.20;61.50;;;;;;5034766;28;20440;-78
2022/07/08 12:35:11;;;;;;;2.47;1.55;;;25.20;60.30;;;;;;5003068;28;20174;-82
2022/07/08 12:37:38;;;;;;;2.60;1.10;;;25.20;60.90;;;;;;4991392;28;20029;-82
2022/07/08 12:40:22;;;;;;;2.17;1.10;;;25.20;60.90;;;;;;5021831;28;20053;-80
2022/07/08 12:43:02;;;;;;;1.30;1.20;;;25.30;60.90;;;;;;5006423;28;20034;-83
2022/07/08 12:45:29;;;;;;;4.95;1.30;;;25.30;61.10;;;;;;4987493;28;20342;-79
2022/07/08 12:47:56;;;;;;;1.17;1.10;;;25.30;62.20;;;;;;5007266;28;20124;-79
2022/07/08 12:50:22;;;;;;;1.95;1.20;;;25.30;61.70;;;;;;5003621;28;20034;-79
2022/07/08 12:52:48;;;;;;;7.88;1.50;;;25.30;61.40;;;;;;5005000;28;20022;-80
2022/07/08 12:55:14;;;;;;;3.88;1.33;;;25.20;60.50;;;;;;4986643;28;20176;-79
2022/07/08 12:57:40;;;;;;;1.33;1.10;;;25.20;61.40;;;;;;5003549;28;20034;-79